createdAt,value
2023-05-25T00:01:03.623Z,96413.94
2023-05-25T00:03:32.020Z,96407.13
2023-05-25T00:06:01.748Z,96412.47
2023-05-25T00:08:29.592Z,96408.97
2023-05-25T00:10:56.836Z,96407.97
2023-05-25T00:13:23.628Z,96409.78
2023-05-25T00:15:50.716Z,96410.66
2023-05-25T00:18:18.745Z,96409.63
2023-05-25T00:20:47.549Z,96410.84
2023-05-25T00:23:14.987Z,96411.19
2023-05-25T00:25:41.956Z,96423.75
2023-05-25T00:28:08.890Z,96417.78
2023-05-25T00:30:35.705Z,96430.69
2023-05-25T00:33:03.231Z,96429.03
2023-05-25T00:35:30.335Z,96436.25
2023-05-25T00:37:57.151Z,96439.28
2023-05-25T00:40:24.049Z,96446.69
2023-05-25T00:42:52.373Z,96443.72
2023-05-25T00:45:19.191Z,96439.38
2023-05-25T00:47:46.929Z,96440.41
2023-05-25T00:50:17.337Z,96442.59
2023-05-25T00:52:44.208Z,96440.13
2023-05-25T00:55:16.210Z,96445.81
2023-05-25T00:57:46.133Z,96442.13
2023-05-25T01:00:14.696Z,96447.31
2023-05-25T01:02:43.983Z,96447.50
2023-05-25T01:05:12.519Z,96444.81
2023-05-25T01:07:42.339Z,96441.94
2023-05-25T01:10:10.771Z,96437.78
2023-05-25T01:12:40.744Z,96437.78
2023-05-25T01:15:09.291Z,96438.25
2023-05-25T01:17:39.385Z,96434.56
2023-05-25T01:20:11.831Z,96439.75
2023-05-25T01:22:49.869Z,96435.88
2023-05-25T01:25:25.408Z,96445.09
2023-05-25T01:27:58.171Z,96437.06
2023-05-25T01:30:27.312Z,96444.91
2023-05-25T01:32:55.489Z,96445.75
2023-05-25T01:35:24.774Z,96447.41
2023-05-25T01:37:52.378Z,96444.91
2023-05-25T01:40:19.171Z,96440.41
2023-05-25T01:42:46.096Z,96444.91
2023-05-25T01:45:14.635Z,96445.75
2023-05-25T01:47:45.259Z,96438.72
2023-05-25T01:50:22.592Z,96440.41
2023-05-25T01:52:57.550Z,96438.72
2023-05-25T01:55:27.647Z,96430.50
2023-05-25T01:57:58.054Z,96437.88
2023-05-25T02:04:28.078Z,96441.94
2023-05-25T02:06:56.047Z,96440.75
2023-05-25T02:09:22.905Z,96436.25
2023-05-25T02:11:49.717Z,96433.75
2023-05-25T02:14:17.119Z,96433.09
2023-05-25T02:16:46.177Z,96430.59
2023-05-25T02:19:15.104Z,96431.13
2023-05-25T02:21:42.725Z,96429.50
2023-05-25T02:24:10.337Z,96437.25
2023-05-25T02:26:38.173Z,96433.91
2023-05-25T02:29:06.231Z,96436.97
2023-05-25T02:31:33.492Z,96432.97
2023-05-25T02:34:00.644Z,96431.69
2023-05-25T02:36:28.488Z,96432.06
2023-05-25T02:38:55.319Z,96437.75
2023-05-25T02:41:24.299Z,96434.63
2023-05-25T02:43:51.476Z,96438.69
2023-05-25T02:46:18.525Z,96437.38
2023-05-25T02:48:45.493Z,96445.94
2023-05-25T02:51:12.338Z,96444.81
2023-05-25T02:53:39.282Z,96447.38
2023-05-25T02:56:06.524Z,96447.06
2023-05-25T02:58:33.378Z,96459.63
2023-05-25T03:01:00.412Z,96459.50
2023-05-25T03:03:28.319Z,96462.56
2023-05-25T03:05:57.238Z,96463.22
2023-05-25T03:08:24.073Z,96461.09
2023-05-25T03:10:51.166Z,96472.97
2023-05-25T03:13:17.923Z,96479.97
2023-05-25T03:15:44.971Z,96477.00
2023-05-25T03:18:12.089Z,96480.38
2023-05-25T03:20:38.966Z,96479.63
2023-05-25T03:23:05.828Z,96486.97
2023-05-25T03:25:32.637Z,96480.44
2023-05-25T03:27:59.550Z,96479.13
2023-05-25T03:30:26.336Z,96487.81
2023-05-25T03:32:53.205Z,96474.19
2023-05-25T03:35:20.248Z,96485.69
2023-05-25T03:37:47.044Z,96481.16
2023-05-25T03:40:14.202Z,96484.03
2023-05-25T03:42:41.179Z,96488.19
2023-05-25T03:45:09.467Z,96485.88
2023-05-25T03:47:38.997Z,96494.88
2023-05-25T03:50:07.198Z,96492.88
2023-05-25T03:52:34.275Z,96500.25
2023-05-25T03:55:01.982Z,96504.09
2023-05-25T03:57:28.908Z,96498.91
2023-05-25T03:59:55.970Z,96507.75
2023-05-25T04:02:22.990Z,96511.47
2023-05-25T04:04:52.118Z,96510.78
2023-05-25T04:07:20.178Z,96506.13
2023-05-25T04:09:46.956Z,96509.44
2023-05-25T04:12:13.751Z,96513.78
2023-05-25T04:14:42.536Z,96508.06
2023-05-25T04:17:09.422Z,96516.28
2023-05-25T04:19:36.321Z,96515.91
2023-05-25T04:22:03.213Z,96518.09
2023-05-25T04:24:30.101Z,96515.06
2023-05-25T04:26:56.849Z,96520.22
2023-05-25T04:29:23.703Z,96521.22
2023-05-25T04:31:51.692Z,96520.22
2023-05-25T04:34:18.478Z,96524.56
2023-05-25T04:36:45.279Z,96519.53
2023-05-25T04:39:12.095Z,96523.88
2023-05-25T04:41:39.447Z,96526.38
2023-05-25T04:44:09.815Z,96526.06
2023-05-25T04:46:37.744Z,96526.56
2023-05-25T04:49:05.857Z,96521.94
2023-05-25T04:51:32.719Z,96528.63
2023-05-25T04:53:59.997Z,96520.44
2023-05-25T04:56:26.968Z,96518.75
2023-05-25T04:58:53.959Z,96532.81
2023-05-25T05:01:20.819Z,96530.41
2023-05-25T05:03:47.790Z,96529.69
2023-05-25T05:06:14.719Z,96533.28
2023-05-25T05:08:41.829Z,96526.16
2023-05-25T05:11:08.633Z,96532.22
2023-05-25T05:13:35.520Z,96540.75
2023-05-25T05:16:02.386Z,96529.00
2023-05-25T05:18:29.297Z,96528.78
2023-05-25T05:20:56.178Z,96521.38
2023-05-25T05:23:22.967Z,96529.84
2023-05-25T05:25:49.703Z,96531.66
2023-05-25T05:28:16.552Z,96537.56
2023-05-25T05:30:46.599Z,96539.34
2023-05-25T05:33:14.478Z,96537.72
2023-05-25T05:35:41.441Z,96538.94
2023-05-25T05:38:08.313Z,96531.94
2023-05-25T05:40:35.220Z,96530.25
2023-05-25T05:43:02.044Z,96526.63
2023-05-25T05:45:28.840Z,96529.44
2023-05-25T05:47:55.948Z,96533.06
2023-05-25T05:50:23.049Z,96538.13
2023-05-25T05:52:49.846Z,96537.66
2023-05-25T05:55:17.024Z,96538.94
2023-05-25T05:57:43.827Z,96543.75
2023-05-25T06:00:11.306Z,96534.66
2023-05-25T06:02:40.068Z,96536.50
2023-05-25T06:05:09.021Z,96537.97
2023-05-25T06:07:36.672Z,96536.66
2023-05-25T06:10:03.546Z,96534.63
2023-05-25T06:12:30.347Z,96533.41
2023-05-25T06:14:57.142Z,96539.00
2023-05-25T06:17:24.361Z,96532.59
2023-05-25T06:19:51.222Z,96539.91
2023-05-25T06:22:18.065Z,96538.81
2023-05-25T06:24:44.837Z,96533.59
2023-05-25T06:27:12.921Z,96536.88
2023-05-25T06:29:39.724Z,96535.25
2023-05-25T06:32:06.798Z,96539.19
2023-05-25T06:34:35.413Z,96537.50
2023-05-25T06:37:03.476Z,96542.81
2023-05-25T06:39:30.223Z,96532.56
2023-05-25T06:41:57.124Z,96533.28
2023-05-25T06:44:23.887Z,96529.44
2023-05-25T06:46:50.937Z,96528.66
2023-05-25T06:49:17.742Z,96523.91
2023-05-25T06:51:44.715Z,96540.34
2023-05-25T06:54:14.035Z,96538.22
2023-05-25T06:56:40.913Z,96535.69
2023-05-25T06:59:07.782Z,96528.19
2023-05-25T07:01:34.593Z,96528.38
2023-05-25T07:04:01.393Z,96522.63
2023-05-25T07:06:28.332Z,96531.44
2023-05-25T07:08:55.894Z,96528.81
2023-05-25T07:11:23.444Z,96539.16
2023-05-25T07:13:50.261Z,96530.19
2023-05-25T07:16:17.099Z,96529.22
2023-05-25T07:18:44.025Z,96527.84
2023-05-25T07:21:11.488Z,96524.53
2023-05-25T07:23:41.143Z,96525.81
2023-05-25T07:26:08.299Z,96520.72
2023-05-25T07:28:35.095Z,96529.59
2023-05-25T07:31:01.990Z,96530.78
2023-05-25T07:33:28.848Z,96522.88
2023-05-25T07:35:55.692Z,96534.06
2023-05-25T07:38:22.464Z,96524.09
2023-05-25T07:40:50.114Z,96522.38
2023-05-25T07:43:16.896Z,96521.31
2023-05-25T07:45:44.021Z,96528.25
2023-05-25T07:48:11.100Z,96529.56
2023-05-25T07:50:37.992Z,96530.78
2023-05-25T07:53:04.815Z,96534.84
2023-05-25T07:55:31.702Z,96537.94
2023-05-25T07:57:58.537Z,96533.63
2023-05-25T08:00:25.371Z,96530.78
2023-05-25T08:02:52.260Z,96532.16
2023-05-25T08:05:19.166Z,96530.56
2023-05-25T08:07:46.791Z,96531.75
2023-05-25T08:10:13.687Z,96530.97
2023-05-25T08:12:48.784Z,96534.47
2023-05-25T08:15:17.223Z,96529.72
2023-05-25T08:17:44.461Z,96538.13
2023-05-25T08:20:12.065Z,96537.22
2023-05-25T08:22:38.827Z,96542.56
2023-05-25T08:25:06.966Z,96536.91
2023-05-25T08:27:35.665Z,96536.19
2023-05-25T08:30:05.987Z,96533.28
2023-05-25T08:32:32.889Z,96537.81
2023-05-25T08:34:59.812Z,96531.28
2023-05-25T08:37:26.623Z,96529.13
2023-05-25T08:39:53.357Z,96522.56
2023-05-25T08:42:20.198Z,96518.19
2023-05-25T08:44:46.998Z,96527.63
2023-05-25T08:47:17.112Z,96535.38
2023-05-25T08:49:45.659Z,96532.94
2023-05-25T08:52:15.103Z,96542.00
2023-05-25T08:54:46.026Z,96541.31
2023-05-25T08:57:50.321Z,96542.81
2023-05-25T09:00:21.924Z,96547.31
2023-05-25T09:03:01.402Z,96541.81
2023-05-25T09:05:28.437Z,96544.50
2023-05-25T09:07:56.562Z,96545.47
2023-05-25T09:10:24.774Z,96546.25
2023-05-25T09:12:52.659Z,96548.47
2023-05-25T09:15:19.540Z,96543.94
2023-05-25T09:17:46.382Z,96550.19
2023-05-25T09:20:14.248Z,96545.63
2023-05-25T09:22:42.350Z,96553.53
2023-05-25T09:25:11.015Z,96545.78
2023-05-25T09:27:38.299Z,96545.44
2023-05-25T09:30:06.053Z,96541.13
2023-05-25T09:32:32.918Z,96549.06
2023-05-25T09:35:18.101Z,96551.41
2023-05-25T09:37:45.279Z,96550.41
2023-05-25T09:40:12.830Z,96547.47
2023-05-25T09:42:40.662Z,96547.38
2023-05-25T09:45:07.709Z,96551.19
2023-05-25T09:47:36.877Z,96554.03
2023-05-25T09:50:04.264Z,96554.41
2023-05-25T09:52:31.657Z,96548.41
2023-05-25T09:54:58.496Z,96556.56
2023-05-25T09:57:27.288Z,96550.28
2023-05-25T09:59:54.262Z,96557.97
2023-05-25T10:02:21.328Z,96561.63
2023-05-25T10:04:48.633Z,96563.16
2023-05-25T10:07:16.350Z,96568.00
2023-05-25T10:09:46.150Z,96567.91
2023-05-25T10:12:17.814Z,96566.25
2023-05-25T10:14:47.085Z,96562.94
2023-05-25T10:17:17.100Z,96561.88
2023-05-25T10:19:57.666Z,96560.00
2023-05-25T10:22:35.834Z,96553.16
2023-05-25T10:25:13.493Z,96548.41
2023-05-25T10:27:59.811Z,96552.78
2023-05-25T10:30:30.170Z,96550.06
2023-05-25T10:32:57.455Z,96554.81
2023-05-25T10:35:24.785Z,96551.03
2023-05-25T10:37:52.651Z,96558.56
2023-05-25T10:40:23.015Z,96546.50
2023-05-25T10:42:52.017Z,96546.41
2023-05-25T10:45:19.195Z,96546.41
2023-05-25T10:47:51.316Z,96544.50
2023-05-25T10:50:24.694Z,96549.00
2023-05-25T10:53:13.729Z,96544.50
2023-05-25T10:56:02.444Z,96536.13
2023-05-25T10:58:30.627Z,96534.50
2023-05-25T11:01:17.751Z,96536.72
2023-05-25T11:03:47.344Z,96536.03
2023-05-25T11:06:15.908Z,96521.31
2023-05-25T11:08:51.256Z,96528.06
2023-05-25T11:11:18.138Z,96542.00
2023-05-25T11:13:46.607Z,96535.50
2023-05-25T11:16:30.795Z,96533.09
2023-05-25T11:19:01.538Z,96533.91
2023-05-25T11:21:28.320Z,96536.56
2023-05-25T11:23:55.996Z,96528.88
2023-05-25T11:26:28.199Z,96532.34
2023-05-25T11:28:56.069Z,96534.53
2023-05-25T11:31:37.134Z,96519.97
2023-05-25T11:34:06.019Z,96521.63
2023-05-25T11:36:35.967Z,96530.78
2023-05-25T11:39:11.584Z,96531.13
2023-05-25T11:41:49.845Z,96530.47
2023-05-25T11:44:29.421Z,96515.59
2023-05-25T11:46:57.866Z,96525.78
2023-05-25T11:49:28.310Z,96515.59
2023-05-25T11:51:56.986Z,96510.09
2023-05-25T11:54:24.680Z,96505.00
2023-05-25T11:56:51.542Z,96495.84
2023-05-25T11:59:18.581Z,96490.03
2023-05-25T12:01:56.186Z,96501.91
2023-05-25T12:04:24.377Z,96492.63
2023-05-25T12:06:51.480Z,96494.28
2023-05-25T12:09:22.317Z,96486.97
2023-05-25T12:11:49.542Z,96482.63
2023-05-25T12:14:16.386Z,96475.88
2023-05-25T12:16:43.881Z,96461.06
2023-05-25T12:19:12.065Z,96463.59
2023-05-25T12:21:41.035Z,96467.94
2023-05-25T12:24:09.190Z,96462.56
2023-05-25T12:26:47.549Z,96460.63
2023-05-25T12:29:14.460Z,96461.47
2023-05-25T12:31:41.833Z,96459.59
2023-05-25T12:34:13.791Z,96454.44
2023-05-25T12:36:54.785Z,96458.06
2023-05-25T12:39:30.679Z,96461.44
2023-05-25T12:42:03.869Z,96458.41
2023-05-25T12:44:33.873Z,96465.19
2023-05-25T12:47:17.474Z,96459.53
2023-05-25T12:49:46.663Z,96464.38
2023-05-25T12:52:43.127Z,96464.66
2023-05-25T12:55:27.281Z,96458.88
2023-05-25T12:57:56.049Z,96455.69
2023-05-25T13:00:24.838Z,96444.84
2023-05-25T13:02:52.462Z,96440.69
2023-05-25T13:05:24.633Z,96429.13
2023-05-25T13:07:52.446Z,96434.69
2023-05-25T13:10:19.542Z,96424.19
2023-05-25T13:12:47.710Z,96428.31
2023-05-25T13:15:17.625Z,96427.09
2023-05-25T13:17:45.347Z,96419.88
2023-05-25T13:20:14.373Z,96419.91
2023-05-25T13:22:42.263Z,96420.81
2023-05-25T13:25:10.245Z,96409.34
2023-05-25T13:27:38.147Z,96406.31
2023-05-25T13:30:08.651Z,96406.97
2023-05-25T13:32:35.578Z,96404.16
2023-05-25T13:35:04.791Z,96392.81
2023-05-25T13:37:33.100Z,96395.53
2023-05-25T13:40:01.161Z,96392.66
2023-05-25T13:42:27.962Z,96391.34
2023-05-25T13:44:54.906Z,96396.47
2023-05-25T13:47:21.701Z,96389.38
2023-05-25T13:49:48.574Z,96387.88
2023-05-25T13:52:15.307Z,96391.69
2023-05-25T13:54:42.201Z,96398.31
2023-05-25T13:57:08.978Z,96398.81
2023-05-25T13:59:35.788Z,96390.38
2023-05-25T14:02:02.644Z,96386.59
2023-05-25T14:04:29.457Z,96394.22
2023-05-25T14:06:57.199Z,96386.78
2023-05-25T14:09:24.033Z,96381.59
2023-05-25T14:11:53.536Z,96381.91
2023-05-25T14:14:30.636Z,96376.81
2023-05-25T14:16:58.614Z,96379.53
2023-05-25T14:19:25.455Z,96379.63
2023-05-25T14:22:11.069Z,96376.78
2023-05-25T14:24:39.115Z,96377.06
2023-05-25T14:27:07.393Z,96375.97
2023-05-25T14:29:34.412Z,96380.44
2023-05-25T14:32:01.717Z,96374.72
2023-05-25T14:34:28.927Z,96375.19
2023-05-25T14:36:56.074Z,96366.59
2023-05-25T14:39:22.989Z,96362.47
2023-05-25T14:41:49.741Z,96360.16
2023-05-25T14:44:16.762Z,96367.34
2023-05-25T14:46:43.698Z,96359.34
2023-05-25T14:49:10.603Z,96355.38
2023-05-25T14:51:38.164Z,96359.81
2023-05-25T14:54:07.326Z,96354.19
2023-05-25T14:56:34.846Z,96353.94
2023-05-25T14:59:01.678Z,96352.44
2023-05-25T15:01:29.600Z,96342.78
2023-05-25T15:03:57.114Z,96346.91
2023-05-25T15:06:24.278Z,96347.28
2023-05-25T15:08:51.264Z,96346.00
2023-05-25T15:11:18.487Z,96340.22
2023-05-25T15:13:45.545Z,96340.44
2023-05-25T15:16:17.019Z,96336.09
2023-05-25T15:18:44.857Z,96333.72
2023-05-25T15:21:11.698Z,96329.81
2023-05-25T15:23:38.451Z,96326.88
2023-05-25T15:26:07.781Z,96333.22
2023-05-25T15:28:34.852Z,96334.94
2023-05-25T15:31:03.295Z,96331.50
2023-05-25T15:33:49.539Z,96338.41
2023-05-25T15:36:19.884Z,96329.88
2023-05-25T15:38:49.595Z,96328.66
2023-05-25T15:41:17.666Z,96331.72
2023-05-25T15:43:54.630Z,96326.38
2023-05-25T15:46:21.724Z,96323.78
2023-05-25T15:48:48.520Z,96324.44
2023-05-25T15:51:15.419Z,96324.09
2023-05-25T15:53:42.221Z,96321.59
2023-05-25T15:56:08.995Z,96324.53
2023-05-25T15:58:35.788Z,96323.56
2023-05-25T16:01:02.814Z,96321.75
2023-05-25T16:03:29.965Z,96322.22
2023-05-25T16:05:57.077Z,96320.00
2023-05-25T16:08:24.109Z,96311.25
2023-05-25T16:10:50.996Z,96315.03
2023-05-25T16:13:17.788Z,96315.25
2023-05-25T16:15:44.997Z,96313.63
2023-05-25T16:18:11.993Z,96313.25
2023-05-25T16:20:38.868Z,96314.50
2023-05-25T16:23:06.542Z,96310.38
2023-05-25T16:25:33.332Z,96309.19
2023-05-25T16:28:00.115Z,96299.06
2023-05-25T16:30:26.871Z,96314.91
2023-05-25T16:32:53.670Z,96307.22
2023-05-25T16:35:20.869Z,96316.84
2023-05-25T16:37:47.608Z,96326.88
2023-05-25T16:40:14.508Z,96323.81
2023-05-25T16:42:41.245Z,96330.28
2023-05-25T16:45:08.527Z,96332.81
2023-05-25T16:47:35.439Z,96335.75
2023-05-25T16:50:02.203Z,96332.06
2023-05-25T16:52:29.075Z,96334.03
2023-05-25T16:54:56.501Z,96335.28
2023-05-25T16:57:23.292Z,96334.91
2023-05-25T16:59:51.755Z,96335.50
2023-05-25T17:02:20.307Z,96340.69
2023-05-25T17:04:47.087Z,96337.38
2023-05-25T17:07:13.837Z,96348.41
2023-05-25T17:09:40.985Z,96348.47
2023-05-25T17:12:08.225Z,96349.28
2023-05-25T17:14:35.018Z,96348.47
2023-05-25T17:17:01.825Z,96355.06
2023-05-25T17:19:28.658Z,96354.63
2023-05-25T17:21:55.831Z,96356.06
2023-05-25T17:24:22.540Z,96358.34
2023-05-25T17:26:50.298Z,96353.53
2023-05-25T17:29:17.184Z,96355.53
2023-05-25T17:31:45.647Z,96348.72
2023-05-25T17:34:13.774Z,96359.75
2023-05-25T17:36:40.590Z,96361.16
2023-05-25T17:39:07.347Z,96360.13
2023-05-25T17:41:34.162Z,96365.16
2023-05-25T17:44:01.023Z,96364.56
2023-05-25T17:46:28.202Z,96359.84
2023-05-25T17:48:55.129Z,96355.47
2023-05-25T17:51:21.975Z,96365.06
2023-05-25T17:53:48.802Z,96368.81
2023-05-25T17:56:15.961Z,96368.81
2023-05-25T17:58:47.907Z,96367.44
2023-05-25T18:01:15.907Z,96366.06
2023-05-25T18:03:43.113Z,96373.16
2023-05-25T18:06:10.293Z,96377.13
2023-05-25T18:08:37.078Z,96374.88
2023-05-25T18:11:03.932Z,96385.06
2023-05-25T18:13:31.231Z,96387.75
2023-05-25T18:15:58.043Z,96396.75
2023-05-25T18:18:25.037Z,96394.69
2023-05-25T18:20:51.883Z,96413.81
2023-05-25T18:23:18.685Z,96419.03
2023-05-25T18:25:46.143Z,96420.56
2023-05-25T18:28:15.288Z,96417.69
2023-05-25T18:30:45.620Z,96419.78
2023-05-25T18:33:12.857Z,96420.03
2023-05-25T18:35:39.817Z,96429.41
2023-05-25T18:38:09.403Z,96437.28
2023-05-25T18:40:36.227Z,96447.28
2023-05-25T18:43:03.084Z,96441.25
2023-05-25T18:45:29.888Z,96452.06
2023-05-25T18:47:56.681Z,96454.16
2023-05-25T18:50:23.556Z,96458.53
2023-05-25T18:52:51.584Z,96467.69
2023-05-25T18:55:19.249Z,96469.13
2023-05-25T18:57:46.854Z,96467.47
2023-05-25T19:00:14.544Z,96479.09
2023-05-25T19:02:41.557Z,96473.88
2023-05-25T19:05:11.766Z,96479.28
2023-05-25T19:07:51.111Z,96488.84
2023-05-25T19:10:25.353Z,96490.72
2023-05-25T19:12:52.201Z,96494.44
2023-05-25T19:15:19.080Z,96493.84
2023-05-25T19:17:46.841Z,96497.78
2023-05-25T19:20:13.968Z,96508.34
2023-05-25T19:22:41.955Z,96511.47
2023-05-25T19:25:08.944Z,96516.25
2023-05-25T19:27:35.757Z,96513.56
2023-05-25T19:30:02.535Z,96514.78
2023-05-25T19:32:29.341Z,96521.00
2023-05-25T19:34:56.505Z,96524.72
2023-05-25T19:37:23.402Z,96523.47
2023-05-25T19:39:50.271Z,96529.28
2023-05-25T19:42:17.120Z,96535.72
2023-05-25T19:44:45.430Z,96532.19
2023-05-25T19:47:12.451Z,96537.78
2023-05-25T19:49:39.331Z,96537.97
2023-05-25T19:52:06.213Z,96540.88
2023-05-25T19:54:33.058Z,96538.41
2023-05-25T19:57:00.232Z,96544.81
2023-05-25T19:59:30.395Z,96550.63
2023-05-25T20:01:57.237Z,96551.66
2023-05-25T20:04:24.198Z,96547.13
2023-05-25T20:06:51.900Z,96555.81
2023-05-25T20:09:19.032Z,96553.94
2023-05-25T20:11:45.910Z,96556.44
2023-05-25T20:14:12.756Z,96559.13
2023-05-25T20:16:40.105Z,96559.94
2023-05-25T20:19:07.840Z,96562.44
2023-05-25T20:21:35.774Z,96565.97
2023-05-25T20:24:02.781Z,96569.06
2023-05-25T20:26:29.678Z,96573.19
2023-05-25T20:28:57.394Z,96570.28
2023-05-25T20:31:27.196Z,96572.78
2023-05-25T20:33:53.981Z,96576.53
2023-05-25T20:36:21.135Z,96581.94
2023-05-25T20:38:48.017Z,96576.31
2023-05-25T20:41:14.914Z,96579.44
2023-05-25T20:43:41.924Z,96586.03
2023-05-25T20:46:09.695Z,96577.31
2023-05-25T20:48:39.430Z,96583.94
2023-05-25T20:51:06.262Z,96585.41
2023-05-25T20:53:33.059Z,96586.03
2023-05-25T20:56:02.224Z,96580.22
2023-05-25T20:58:28.961Z,96583.53
2023-05-25T21:00:55.709Z,96589.31
2023-05-25T21:03:22.542Z,96591.41
2023-05-25T21:05:49.346Z,96591.41
2023-05-25T21:08:16.207Z,96586.84
2023-05-25T21:10:43.055Z,96583.94
2023-05-25T21:13:11.311Z,96587.69
2023-05-25T21:15:38.120Z,96587.03
2023-05-25T21:18:07.054Z,96589.13
2023-05-25T21:20:33.980Z,96584.56
2023-05-25T21:23:01.347Z,96588.47
2023-05-25T21:25:29.313Z,96589.72
2023-05-25T21:27:57.195Z,96591.97
2023-05-25T21:30:24.607Z,96593.22
2023-05-25T21:32:51.587Z,96601.91
2023-05-25T21:35:18.528Z,96596.50
2023-05-25T21:37:45.876Z,96592.34
2023-05-25T21:40:13.056Z,96590.88
2023-05-25T21:42:39.818Z,96593.59
2023-05-25T21:45:07.116Z,96597.94
2023-05-25T21:47:33.993Z,96598.97
2023-05-25T21:50:00.892Z,96609.13
2023-05-25T21:52:27.673Z,96602.06
2023-05-25T21:54:54.482Z,96600.41
2023-05-25T21:57:21.227Z,96593.56
2023-05-25T21:59:47.997Z,96596.66
2023-05-25T22:02:14.806Z,96595.44
2023-05-25T22:04:41.625Z,96596.25
2023-05-25T22:07:08.477Z,96601.63
2023-05-25T22:09:35.285Z,96607.22
2023-05-25T22:12:02.483Z,96599.56
2023-05-25T22:14:29.291Z,96603.69
2023-05-25T22:16:56.156Z,96611.75
2023-05-25T22:19:23.095Z,96605.72
2023-05-25T22:21:49.875Z,96607.81
2023-05-25T22:24:16.658Z,96603.41
2023-05-25T22:26:43.455Z,96608.53
2023-05-25T22:29:11.983Z,96605.63
2023-05-25T22:31:38.883Z,96595.72
2023-05-25T22:34:05.855Z,96596.13
2023-05-25T22:36:32.770Z,96594.00
2023-05-25T22:38:59.648Z,96586.94
2023-05-25T22:41:26.695Z,96591.88
2023-05-25T22:43:53.580Z,96594.97
2023-05-25T22:46:21.056Z,96591.19
2023-05-25T22:48:47.857Z,96595.91
2023-05-25T22:51:14.656Z,96596.69
2023-05-25T22:53:41.736Z,96591.91
2023-05-25T22:56:08.894Z,96596.44
2023-05-25T22:58:35.768Z,96596.22
2023-05-25T23:01:02.565Z,96597.81
2023-05-25T23:03:30.382Z,96595.72
2023-05-25T23:05:57.297Z,96604.50
2023-05-25T23:08:24.054Z,96603.69
2023-05-25T23:10:50.819Z,96600.19
2023-05-25T23:13:19.308Z,96603.06
2023-05-25T23:15:47.622Z,96594.94
2023-05-25T23:18:14.484Z,96594.69
2023-05-25T23:20:41.930Z,96599.63
2023-05-25T23:23:08.976Z,96600.06
2023-05-25T23:25:36.547Z,96592.41
2023-05-25T23:28:03.399Z,96601.81
2023-05-25T23:30:30.158Z,96598.00
2023-05-25T23:32:57.094Z,96600.50
2023-05-25T23:35:23.936Z,96596.44
2023-05-25T23:37:52.128Z,96599.34
2023-05-25T23:40:19.129Z,96596.31
2023-05-25T23:42:46.028Z,96597.56
2023-05-25T23:45:13.948Z,96593.03
2023-05-25T23:47:40.881Z,96595.50
2023-05-25T23:50:08.222Z,96590.13
2023-05-25T23:52:35.179Z,96586.44
2023-05-25T23:55:02.192Z,96594.09
2023-05-25T23:57:28.966Z,96585.22
2023-05-25T23:59:55.770Z,96584.00
